Time;durP1;ratioP1;P1;durP2;ratioP2;P2;SDS_P1;SDS_P2;PMS_P1;PMS_P2;Temp;Humidity;BMP_temperature;BMP_pressure;BME280_temperature;BME280_humidity;BME280_pressure;Samples;Min_cycle;Max_cycle;Signal;HPM_P1;HPM_P2
2020/12/01 00:00:17;;;;;;;64.28;29.52;;;11.70;71.90;;;;;;5074525;28;20039;-65
2020/12/01 00:02:44;;;;;;;55.80;30.48;;;11.70;72.00;;;;;;5057157;28;20111;-65
2020/12/01 00:05:12;;;;;;;56.72;30.13;;;11.60;72.00;;;;;;5059130;28;20040;-64
2020/12/01 00:07:38;;;;;;;52.88;31.00;;;11.60;72.10;;;;;;5064426;28;20027;-65
2020/12/01 00:10:06;;;;;;;58.55;30.27;;;11.70;72.10;;;;;;5069328;28;20039;-66
2020/12/01 00:12:32;;;;;;;55.03;31.70;;;11.70;72.00;;;;;;5061823;28;20427;-64
2020/12/01 00:14:57;;;;;;;51.58;30.35;;;11.80;72.10;;;;;;5052528;28;20031;-65
2020/12/01 00:17:23;;;;;;;56.90;31.13;;;11.80;71.90;;;;;;5065312;28;20121;-64
2020/12/01 00:19:48;;;;;;;53.22;30.85;;;11.80;71.80;;;;;;5073814;28;20093;-65
2020/12/01 00:22:14;;;;;;;56.13;30.45;;;11.90;71.80;;;;;;5073750;28;20034;-64
2020/12/01 00:24:40;;;;;;;49.80;29.70;;;11.90;71.70;;;;;;5073455;28;20028;-65
2020/12/01 00:27:06;;;;;;;56.08;31.40;;;11.90;71.50;;;;;;5073881;28;20451;-65
2020/12/01 00:29:31;;;;;;;62.10;30.65;;;11.90;71.70;;;;;;5071810;28;20071;-64
2020/12/01 00:31:57;;;;;;;59.25;30.55;;;12.00;71.50;;;;;;5073513;28;20111;-63
2020/12/01 00:34:23;;;;;;;51.15;30.02;;;12.00;71.10;;;;;;5044629;28;20119;-64
2020/12/01 00:36:48;;;;;;;54.05;29.15;;;12.10;70.90;;;;;;5053344;28;20031;-65
2020/12/01 00:39:14;;;;;;;49.88;28.23;;;12.10;70.60;;;;;;5081227;28;20151;-65
2020/12/01 00:41:40;;;;;;;89.68;31.70;;;12.20;70.40;;;;;;5089541;28;20077;-66
2020/12/01 00:44:06;;;;;;;49.10;29.40;;;12.20;70.30;;;;;;5090825;28;20369;-64
2020/12/01 00:46:31;;;;;;;60.88;28.85;;;12.20;70.10;;;;;;5073217;28;20046;-65
2020/12/01 00:48:57;;;;;;;53.40;29.65;;;12.30;70.10;;;;;;5064765;28;20036;-66
2020/12/01 00:51:23;;;;;;;50.30;28.75;;;12.20;70.10;;;;;;5038708;28;20039;-65
2020/12/01 00:53:50;;;;;;;78.88;32.95;;;12.20;70.10;;;;;;5053155;28;20040;-65
2020/12/01 00:56:20;;;;;;;50.47;29.35;;;12.20;70.10;;;;;;5055356;28;20080;-64
2020/12/01 00:58:46;;;;;;;74.60;33.10;;;12.30;70.10;;;;;;5071719;28;20032;-66
2020/12/01 01:01:11;;;;;;;61.40;34.03;;;12.20;70.10;;;;;;5090781;28;20036;-66
2020/12/01 01:03:37;;;;;;;58.47;33.00;;;12.20;70.30;;;;;;5055784;28;20059;-65
2020/12/01 01:06:03;;;;;;;59.95;32.50;;;12.10;70.80;;;;;;5052916;28;20640;-64
2020/12/01 01:08:29;;;;;;;53.92;31.63;;;12.00;71.20;;;;;;5062439;28;20486;-66
2020/12/01 01:10:55;;;;;;;48.67;28.23;;;11.90;71.40;;;;;;5069672;28;20048;-64
2020/12/01 01:13:21;;;;;;;41.13;24.00;;;12.00;71.40;;;;;;5053024;28;20028;-64
2020/12/01 01:15:47;;;;;;;46.03;22.63;;;11.90;71.70;;;;;;5052967;28;20034;-66
2020/12/01 01:18:12;;;;;;;44.45;20.63;;;11.90;72.00;;;;;;5036234;28;20043;-64
2020/12/01 01:20:38;;;;;;;34.97;19.05;;;11.90;72.30;;;;;;5068425;28;20399;-64
2020/12/01 01:23:04;;;;;;;33.53;18.13;;;11.90;72.20;;;;;;5072557;28;20028;-65
2020/12/01 01:25:29;;;;;;;53.47;17.83;;;12.00;72.20;;;;;;5071822;28;20032;-64
2020/12/01 01:27:55;;;;;;;44.83;18.80;;;12.10;72.00;;;;;;5091059;28;20024;-64
2020/12/01 01:30:23;;;;;;;41.45;17.40;;;12.10;71.70;;;;;;5084680;28;20031;-65
2020/12/01 01:32:49;;;;;;;40.88;17.98;;;12.20;71.70;;;;;;5087262;28;20379;-66
2020/12/01 01:35:15;;;;;;;42.33;17.90;;;12.30;71.60;;;;;;5050644;28;20025;-65
2020/12/01 01:37:42;;;;;;;45.83;17.20;;;12.30;71.50;;;;;;5074327;28;20103;-65
2020/12/01 01:40:20;;;;;;;40.50;15.20;;;12.30;71.50;;;;;;5088372;28;20040;-65
2020/12/01 01:42:46;;;;;;;38.45;15.63;;;12.40;71.50;;;;;;5070799;28;20032;-66
2020/12/01 01:45:12;;;;;;;45.38;15.85;;;12.40;71.30;;;;;;5085591;28;20479;-66
2020/12/01 01:47:38;;;;;;;37.08;14.32;;;12.50;71.20;;;;;;5090439;28;20063;-66
2020/12/01 01:50:14;;;;;;;38.72;13.82;;;12.40;71.10;;;;;;5084729;28;20031;-64
2020/12/01 01:52:43;;;;;;;35.78;12.55;;;12.50;71.30;;;;;;5070703;28;20025;-66
2020/12/01 01:55:22;;;;;;;39.72;10.85;;;12.40;71.50;;;;;;5079207;28;20028;-65
2020/12/01 01:57:53;;;;;;;35.22;10.23;;;12.40;71.50;;;;;;5070779;28;20589;-65
2020/12/01 02:00:57;;;;;;;31.52;8.48;;;12.40;71.40;;;;;;5056060;28;20024;-66
2020/12/01 02:03:33;;;;;;;30.30;7.18;;;12.40;71.40;;;;;;5056586;28;20071;-65
2020/12/01 02:06:00;;;;;;;35.95;6.55;;;12.40;71.30;;;;;;5075668;28;20119;-65
2020/12/01 02:08:27;;;;;;;31.42;5.72;;;12.40;71.20;;;;;;5060110;28;20028;-66
2020/12/01 02:10:54;;;;;;;32.75;6.00;;;12.40;71.30;;;;;;5075507;28;20047;-65
2020/12/01 02:13:35;;;;;;;29.05;5.00;;;12.30;71.20;;;;;;5076374;28;20029;-64
2020/12/01 02:16:01;;;;;;;36.53;4.97;;;12.30;71.30;;;;;;5085705;28;20100;-65
2020/12/01 02:18:33;;;;;;;20.40;4.03;;;12.30;71.40;;;;;;5091414;28;20533;-64
2020/12/01 02:21:01;;;;;;;26.73;3.80;;;12.30;71.30;;;;;;5076698;28;20484;-65
2020/12/01 02:23:27;;;;;;;24.85;4.15;;;12.30;71.40;;;;;;5074442;28;20062;-64
2020/12/01 02:25:58;;;;;;;30.45;3.92;;;12.20;71.20;;;;;;5056543;28;20395;-64
2020/12/01 02:28:24;;;;;;;27.25;3.15;;;12.30;71.20;;;;;;5082081;28;20028;-65
2020/12/01 02:30:50;;;;;;;36.17;4.43;;;12.30;71.00;;;;;;5076019;28;20165;-65
2020/12/01 02:33:15;;;;;;;26.20;3.50;;;12.20;71.00;;;;;;5058167;28;20135;-65
2020/12/01 02:35:41;;;;;;;25.17;3.67;;;12.20;71.00;;;;;;5076256;28;20036;-66
2020/12/01 02:38:06;;;;;;;22.58;3.20;;;12.10;71.00;;;;;;5075105;28;20040;-64
2020/12/01 02:40:32;;;;;;;28.20;3.58;;;12.10;71.10;;;;;;5088180;28;20085;-65
2020/12/01 02:42:59;;;;;;;24.25;3.40;;;12.10;71.20;;;;;;5089574;28;20024;-64
2020/12/01 02:45:25;;;;;;;27.10;3.85;;;12.10;71.10;;;;;;5075554;28;20024;-65
2020/12/01 02:47:50;;;;;;;23.10;3.08;;;12.00;71.20;;;;;;5093452;28;20028;-64
2020/12/01 02:50:16;;;;;;;19.88;3.22;;;11.90;71.50;;;;;;5060007;28;20037;-66
2020/12/01 02:52:42;;;;;;;29.77;3.83;;;11.90;71.50;;;;;;5055976;28;20056;-65
2020/12/01 02:55:08;;;;;;;29.33;3.13;;;11.90;71.50;;;;;;5081562;28;20558;-64
2020/12/01 02:57:33;;;;;;;24.48;2.92;;;11.90;71.30;;;;;;5052460;28;20111;-65
2020/12/01 02:59:59;;;;;;;26.35;3.38;;;11.90;71.10;;;;;;5074903;28;20377;-65
2020/12/01 03:02:24;;;;;;;22.83;3.47;;;11.90;70.90;;;;;;5058055;28;20149;-65
2020/12/01 03:04:50;;;;;;;25.27;4.15;;;11.90;70.80;;;;;;5093437;28;20463;-66
2020/12/01 03:07:16;;;;;;;19.52;3.30;;;11.90;70.90;;;;;;5092628;28;20036;-65
2020/12/01 03:09:41;;;;;;;25.75;4.88;;;11.90;70.90;;;;;;5075537;28;20093;-65
2020/12/01 03:12:07;;;;;;;22.02;3.22;;;11.80;71.00;;;;;;5092063;28;20052;-63
2020/12/01 03:14:33;;;;;;;32.40;3.13;;;11.80;71.00;;;;;;5075425;28;20033;-66
2020/12/01 03:16:58;;;;;;;29.33;3.13;;;11.80;70.80;;;;;;5091774;28;20028;-65
2020/12/01 03:19:24;;;;;;;27.65;3.28;;;11.80;70.70;;;;;;5075514;28;20044;-66
2020/12/01 03:21:50;;;;;;;23.10;2.80;;;11.80;70.70;;;;;;5050154;28;20759;-65
2020/12/01 03:24:15;;;;;;;19.17;2.75;;;11.80;70.70;;;;;;5074344;28;20052;-65
2020/12/01 03:26:41;;;;;;;28.77;2.78;;;11.80;70.70;;;;;;5092893;28;20032;-64
2020/12/01 03:29:07;;;;;;;18.48;2.80;;;11.70;70.90;;;;;;5073101;28;20047;-65
2020/12/01 03:31:33;;;;;;;22.95;3.65;;;11.70;71.10;;;;;;5063485;28;20032;-66
2020/12/01 03:33:58;;;;;;;25.52;2.65;;;11.60;71.20;;;;;;5072926;28;20376;-66
2020/12/01 03:36:24;;;;;;;21.73;2.65;;;11.60;71.20;;;;;;5073318;28;20472;-65
2020/12/01 03:38:50;;;;;;;22.23;3.15;;;11.60;71.10;;;;;;5072807;28;20044;-66
2020/12/01 03:41:15;;;;;;;24.02;3.25;;;11.70;70.90;;;;;;5074361;28;20055;-64
2020/12/01 03:43:41;;;;;;;24.20;2.95;;;11.70;70.80;;;;;;5057575;28;20119;-66
2020/12/01 03:46:08;;;;;;;23.55;3.28;;;11.70;70.90;;;;;;5049137;28;20040;-65
2020/12/01 03:48:34;;;;;;;28.73;3.03;;;11.60;71.00;;;;;;5072523;28;20032;-65
2020/12/01 03:50:59;;;;;;;22.70;3.50;;;11.60;70.90;;;;;;5066730;28;20039;-66
2020/12/01 03:53:25;;;;;;;22.17;2.95;;;11.60;70.90;;;;;;5072337;28;20035;-65
2020/12/01 03:55:51;;;;;;;19.48;2.95;;;11.70;70.80;;;;;;5068535;28;20160;-65
2020/12/01 03:58:17;;;;;;;19.08;2.30;;;11.70;70.90;;;;;;5074336;28;20123;-65
2020/12/01 04:00:43;;;;;;;34.28;3.88;;;11.70;71.00;;;;;;5068585;28;20040;-65
2020/12/01 04:03:09;;;;;;;18.73;2.95;;;11.70;71.00;;;;;;5092632;28;20028;-66
2020/12/01 04:05:35;;;;;;;22.60;2.70;;;11.60;70.90;;;;;;5073709;28;20036;-64
2020/12/01 04:08:00;;;;;;;19.95;2.47;;;11.70;70.90;;;;;;5073711;28;20040;-65
2020/12/01 04:10:27;;;;;;;15.25;2.95;;;11.70;71.00;;;;;;5092456;28;20032;-64
2020/12/01 04:12:54;;;;;;;20.73;2.42;;;11.80;70.80;;;;;;5090425;28;20442;-65
2020/12/01 04:15:22;;;;;;;25.77;3.42;;;11.80;70.80;;;;;;5073434;28;20036;-64
2020/12/01 04:17:48;;;;;;;18.65;2.10;;;11.80;70.90;;;;;;5091500;28;20053;-65
2020/12/01 04:20:14;;;;;;;21.60;3.10;;;11.80;70.90;;;;;;5092183;28;20028;-66
2020/12/01 04:22:40;;;;;;;20.02;2.90;;;11.90;70.70;;;;;;5089618;28;20024;-66
2020/12/01 04:25:08;;;;;;;27.67;2.50;;;11.90;70.60;;;;;;5073856;28;20115;-66
2020/12/01 04:27:35;;;;;;;27.35;2.67;;;11.90;70.50;;;;;;5072359;28;20107;-65
2020/12/01 04:30:01;;;;;;;17.85;2.90;;;11.90;70.70;;;;;;5072879;28;20032;-65
2020/12/01 04:32:26;;;;;;;21.73;2.72;;;11.90;70.80;;;;;;5072986;28;20023;-66
2020/12/01 04:34:52;;;;;;;28.25;2.63;;;11.90;70.80;;;;;;5091502;28;20435;-65
2020/12/01 04:37:18;;;;;;;27.15;2.50;;;11.90;70.70;;;;;;5039666;28;20462;-65
2020/12/01 04:39:43;;;;;;;27.70;2.65;;;11.90;70.60;;;;;;5090618;28;20072;-66
2020/12/01 04:42:15;;;;;;;23.23;2.17;;;11.90;70.70;;;;;;5054994;28;20128;-65
2020/12/01 04:44:48;;;;;;;20.35;3.25;;;12.00;70.60;;;;;;5065171;28;20061;-65
2020/12/01 04:47:25;;;;;;;17.07;2.37;;;12.00;70.60;;;;;;5090445;28;20484;-65
2020/12/01 04:49:56;;;;;;;16.60;2.42;;;12.00;70.60;;;;;;5053545;28;20270;-64
2020/12/01 04:52:54;;;;;;;25.02;3.03;;;12.00;70.50;;;;;;5053628;28;20024;-67
2020/12/01 04:55:32;;;;;;;21.88;2.97;;;12.00;70.50;;;;;;5039047;28;20051;-64
2020/12/01 04:58:28;;;;;;;22.35;2.90;;;12.00;70.30;;;;;;5091363;28;20119;-65
2020/12/01 05:01:12;;;;;;;20.58;3.00;;;11.90;70.50;;;;;;5098336;28;20044;-66
2020/12/01 05:03:46;;;;;;;19.48;2.40;;;11.90;70.50;;;;;;5080107;28;20020;-65
2020/12/01 05:07:05;;;;;;;20.35;2.95;;;11.90;70.40;;;;;;5091669;28;20028;-66
2020/12/01 05:09:40;;;;;;;21.55;2.88;;;12.00;70.40;;;;;;5073280;28;20028;-65
2020/12/01 05:12:21;;;;;;;20.00;3.17;;;11.90;70.50;;;;;;5072210;28;20016;-66
2020/12/01 05:14:59;;;;;;;22.95;3.22;;;11.80;70.60;;;;;;5073865;28;20028;-65
2020/12/01 05:17:55;;;;;;;19.88;3.25;;;11.80;70.70;;;;;;5084701;28;20083;-65
2020/12/01 05:20:21;;;;;;;21.35;3.42;;;11.80;70.70;;;;;;5071936;28;20052;-64
2020/12/01 05:22:55;;;;;;;21.25;3.17;;;11.80;70.70;;;;;;5062593;28;20353;-65
2020/12/01 05:25:27;;;;;;;19.85;3.05;;;11.80;70.60;;;;;;5080100;28;20061;-65
2020/12/01 05:28:10;;;;;;;16.03;2.80;;;11.90;70.40;;;;;;5090504;28;20423;-66
2020/12/01 05:30:37;;;;;;;23.63;3.47;;;11.90;70.30;;;;;;5069536;28;20024;-65
2020/12/01 05:33:25;;;;;;;22.13;3.65;;;11.90;70.40;;;;;;5068181;28;20673;-65
2020/12/01 05:36:12;;;;;;;28.55;4.20;;;11.90;70.50;;;;;;5064286;28;20040;-66
2020/12/01 05:38:38;;;;;;;25.58;4.43;;;11.80;70.60;;;;;;5066429;28;20040;-65
2020/12/01 05:41:26;;;;;;;23.75;4.88;;;11.70;70.70;;;;;;5074908;28;20052;-65
2020/12/01 05:44:02;;;;;;;21.58;4.13;;;11.80;70.70;;;;;;5071961;28;20453;-64
2020/12/01 05:46:31;;;;;;;28.27;4.18;;;11.80;70.60;;;;;;5069910;28;20031;-65
2020/12/01 05:49:27;;;;;;;22.83;4.07;;;11.80;70.50;;;;;;5072005;28;20039;-65
2020/12/01 05:52:11;;;;;;;17.95;3.70;;;11.90;70.40;;;;;;5072765;28;20043;-64
2020/12/01 05:54:40;;;;;;;28.58;3.92;;;11.80;70.50;;;;;;5090054;28;20039;-65
2020/12/01 05:57:24;;;;;;;18.10;3.85;;;11.80;70.70;;;;;;5088793;28;20028;-64
2020/12/01 06:00:05;;;;;;;16.83;4.05;;;11.80;70.60;;;;;;5069030;28;20043;-65
2020/12/01 06:02:47;;;;;;;18.45;4.03;;;11.80;70.80;;;;;;5065613;28;20383;-64
2020/12/01 06:05:18;;;;;;;26.88;5.10;;;11.80;70.70;;;;;;5071200;28;20115;-66
2020/12/01 06:07:47;;;;;;;21.17;4.90;;;11.80;70.60;;;;;;5073548;28;20148;-65
2020/12/01 06:10:38;;;;;;;37.47;5.43;;;11.70;70.80;;;;;;5089853;28;20044;-66
2020/12/01 06:13:12;;;;;;;23.25;5.97;;;11.70;70.80;;;;;;5058007;28;20020;-64
2020/12/01 06:15:52;;;;;;;18.15;5.47;;;11.80;70.70;;;;;;5089137;28;20028;-65
2020/12/01 06:18:25;;;;;;;26.23;6.50;;;11.80;70.60;;;;;;5106963;28;20036;-65
2020/12/01 06:21:00;;;;;;;26.23;6.43;;;11.80;70.60;;;;;;5072641;28;20019;-66
2020/12/01 06:23:54;;;;;;;25.45;6.57;;;11.90;70.50;;;;;;5072413;28;20020;-65
2020/12/01 06:26:38;;;;;;;;;;;11.90;70.30;;;;;;5065277;28;20024;-65
2020/12/01 06:29:32;;;;;;;23.00;6.75;;;11.90;70.50;;;;;;5085227;28;19908;-65
2020/12/01 06:32:29;;;;;;;22.77;6.97;;;12.00;70.10;;;;;;5079160;28;20024;-64
2020/12/01 06:35:46;;;;;;;21.15;7.65;;;12.00;70.00;;;;;;5057400;28;20025;-67
2020/12/01 06:38:48;;;;;;;17.10;6.82;;;12.00;70.00;;;;;;5018377;28;20477;-66
2020/12/01 06:41:19;;;;;;;24.25;6.97;;;12.00;70.30;;;;;;5076758;28;20054;-66
2020/12/01 06:43:56;;;;;;;21.85;8.50;;;12.00;70.10;;;;;;5078781;28;20024;-67
2020/12/01 06:46:44;;;;;;;19.58;8.15;;;12.10;70.20;;;;;;5085320;28;20094;-66
2020/12/01 06:49:37;;;;;;;16.48;8.20;;;12.00;70.20;;;;;;5079115;28;20033;-66
2020/12/01 06:52:13;;;;;;;21.75;8.68;;;12.00;70.30;;;;;;5081415;28;20463;-65
2020/12/01 06:54:57;;;;;;;18.45;8.77;;;12.10;70.40;;;;;;5081815;28;20040;-66
2020/12/01 06:57:27;;;;;;;23.23;10.05;;;12.10;70.10;;;;;;5070274;28;20117;-67
2020/12/01 06:59:53;;;;;;;17.88;10.48;;;12.20;70.10;;;;;;5067672;28;20122;-66
2020/12/01 07:02:28;;;;;;;21.20;10.43;;;12.20;70.20;;;;;;5053919;28;20108;-65
2020/12/01 07:05:12;;;;;;;22.10;10.75;;;12.20;70.20;;;;;;5069179;28;20037;-67
2020/12/01 07:07:44;;;;;;;34.72;11.45;;;12.30;70.30;;;;;;5091465;28;20511;-66
2020/12/01 07:10:30;;;;;;;25.67;11.15;;;12.30;70.20;;;;;;5071076;28;20036;-66
2020/12/01 07:13:22;;;;;;;26.58;10.55;;;12.30;70.20;;;;;;5085860;28;20144;-67
2020/12/01 07:15:51;;;;;;;28.63;10.32;;;12.30;70.40;;;;;;5077032;28;20545;-66
2020/12/01 07:18:31;;;;;;;25.95;10.68;;;12.40;70.50;;;;;;5053683;28;20496;-65
2020/12/01 07:21:18;;;;;;;22.83;8.80;;;12.40;70.40;;;;;;5079679;28;20139;-66
2020/12/01 07:24:06;;;;;;;17.50;8.07;;;12.50;70.50;;;;;;5087322;28;20518;-66
2020/12/01 07:26:56;;;;;;;13.50;7.35;;;12.50;70.40;;;;;;5082185;28;20804;-67
2020/12/01 07:30:12;;;;;;;18.77;7.60;;;12.50;70.50;;;;;;5086511;28;20028;-65
2020/12/01 07:32:50;;;;;;;13.60;7.20;;;12.50;70.60;;;;;;5073945;28;20036;-66
2020/12/01 07:35:30;;;;;;;14.35;7.82;;;12.50;70.60;;;;;;5082717;28;20020;-67
2020/12/01 07:38:26;;;;;;;15.55;7.25;;;12.60;70.90;;;;;;5060372;28;20033;-65
2020/12/01 07:40:56;;;;;;;18.20;7.50;;;12.60;70.90;;;;;;5089984;28;20083;-66
2020/12/01 07:43:23;;;;;;;11.55;6.68;;;12.60;71.00;;;;;;5068136;28;20031;-67
2020/12/01 07:45:59;;;;;;;16.67;7.80;;;12.60;71.10;;;;;;5091049;28;20032;-66
2020/12/01 07:48:24;;;;;;;16.35;6.65;;;12.60;71.30;;;;;;5062916;28;20036;-66
2020/12/01 07:50:50;;;;;;;14.13;6.47;;;12.60;71.40;;;;;;5053279;28;20028;-66
2020/12/01 07:53:25;;;;;;;10.98;5.20;;;12.60;71.60;;;;;;5073984;28;20357;-66
2020/12/01 07:56:01;;;;;;;11.88;4.50;;;12.60;71.60;;;;;;5038915;28;20032;-67
2020/12/01 07:58:29;;;;;;;10.45;4.00;;;12.70;71.70;;;;;;5073796;28;20032;-66
2020/12/01 08:00:58;;;;;;;10.75;3.50;;;12.60;71.80;;;;;;5090921;28;20027;-67
2020/12/01 08:03:27;;;;;;;8.30;3.13;;;12.60;72.00;;;;;;5081744;28;20071;-66
2020/12/01 08:05:59;;;;;;;14.77;3.00;;;12.70;72.10;;;;;;5086897;28;20028;-65
2020/12/01 08:08:25;;;;;;;14.85;3.28;;;12.70;72.20;;;;;;5063462;28;20093;-66
2020/12/01 08:10:51;;;;;;;13.70;2.45;;;12.70;72.30;;;;;;5071405;28;20512;-66
2020/12/01 08:13:19;;;;;;;16.00;2.60;;;12.70;72.40;;;;;;5044334;28;20060;-66
2020/12/01 08:15:47;;;;;;;16.02;2.28;;;12.70;72.60;;;;;;5060802;28;20446;-68
2020/12/01 08:18:15;;;;;;;19.50;2.03;;;12.70;72.50;;;;;;5073484;28;20036;-66
2020/12/01 08:20:42;;;;;;;13.45;1.80;;;12.70;72.60;;;;;;5053238;28;20033;-66
2020/12/01 08:23:35;;;;;;;25.42;3.28;;;12.70;72.70;;;;;;5088241;28;20028;-66
2020/12/01 08:26:04;;;;;;;28.13;2.50;;;12.70;72.90;;;;;;5055269;28;20075;-69
2020/12/01 08:28:42;;;;;;;21.55;3.05;;;12.60;73.10;;;;;;5088312;28;20054;-65
2020/12/01 08:31:56;;;;;;;27.80;3.00;;;12.70;73.00;;;;;;5085899;28;20350;-69
2020/12/01 08:34:35;;;;;;;34.33;3.55;;;12.70;72.90;;;;;;5070484;28;20111;-66
2020/12/01 08:37:39;;;;;;;28.05;3.65;;;12.80;72.80;;;;;;5064145;28;20027;-68
2020/12/01 08:40:07;;;;;;;22.45;3.20;;;12.80;72.80;;;;;;5067449;28;20316;-66
2020/12/01 08:43:13;;;;;;;32.13;3.45;;;12.80;72.60;;;;;;5064364;28;20052;-66
2020/12/01 08:45:44;;;;;;;48.47;4.15;;;12.90;72.50;;;;;;5062346;28;20048;-65
2020/12/01 08:48:42;;;;;;;47.70;5.15;;;12.80;72.30;;;;;;5083249;28;20024;-66
2020/12/01 08:51:21;;;;;;;39.72;4.70;;;12.90;72.20;;;;;;5042578;28;20040;-66
2020/12/01 08:53:59;;;;;;;37.80;3.70;;;13.00;72.10;;;;;;5086994;28;20383;-65
2020/12/01 08:56:43;;;;;;;41.75;4.25;;;12.90;72.00;;;;;;5086508;28;20054;-65
2020/12/01 08:59:13;;;;;;;42.50;4.40;;;13.00;72.20;;;;;;5084964;28;20067;-65
2020/12/01 09:01:41;;;;;;;37.53;4.22;;;13.00;72.10;;;;;;5087726;28;20088;-64
2020/12/01 09:04:22;;;;;;;45.55;4.55;;;13.00;72.10;;;;;;5089606;28;20384;-65
2020/12/01 09:06:48;;;;;;;40.38;5.15;;;13.00;72.10;;;;;;5071593;28;20043;-65
2020/12/01 09:09:26;;;;;;;37.72;4.65;;;13.00;72.10;;;;;;5049613;28;20032;-66
2020/12/01 09:12:17;;;;;;;46.83;6.25;;;13.00;72.00;;;;;;5063736;28;20548;-67
2020/12/01 09:17:47;;;;;;;48.97;5.15;;;12.90;72.00;;;;;;5077400;28;20189;-66
2020/12/01 09:23:13;;;;;;;50.70;6.00;;;13.00;72.00;;;;;;5083318;28;20117;-65
2020/12/01 09:25:41;;;;;;;34.75;4.03;;;13.00;71.90;;;;;;5092777;28;20028;-68
2020/12/01 09:28:13;;;;;;;51.00;5.22;;;13.00;72.00;;;;;;5054331;28;20028;-68
2020/12/01 09:30:40;;;;;;;42.22;5.07;;;13.00;71.90;;;;;;5076272;28;20032;-67
2020/12/01 09:33:09;;;;;;;59.33;5.93;;;13.00;71.80;;;;;;5068628;28;20040;-67
2020/12/01 09:35:35;;;;;;;49.72;4.78;;;13.10;71.60;;;;;;5085756;28;20080;-67
2020/12/01 09:38:02;;;;;;;44.47;5.28;;;13.20;71.40;;;;;;5078947;28;20024;-68
2020/12/01 09:40:30;;;;;;;40.78;4.88;;;13.20;71.30;;;;;;5083297;28;20032;-66
2020/12/01 09:43:00;;;;;;;46.85;5.68;;;13.20;71.30;;;;;;5068772;28;20036;-67
2020/12/01 09:45:28;;;;;;;43.60;5.65;;;13.20;71.30;;;;;;5056875;28;20028;-67
2020/12/01 09:48:04;;;;;;;49.58;5.03;;;13.20;71.20;;;;;;5080827;28;20915;-68
2020/12/01 09:50:33;;;;;;;44.95;6.28;;;13.30;71.20;;;;;;5048332;28;20120;-67
2020/12/01 09:58:17;;;;;;;52.33;5.55;;;13.20;71.40;;;;;;5090314;28;20070;-68
2020/12/01 10:02:50;;;;;;;46.00;4.55;;;13.20;71.30;;;;;;5086511;28;20480;-68
2020/12/01 10:17:27;;;;;;;39.88;4.50;;;13.10;71.70;;;;;;5085437;28;20104;-68
2020/12/01 10:20:11;;;;;;;30.25;3.90;;;13.20;71.60;;;;;;5084173;28;20043;-68
2020/12/01 10:36:01;;;;;;;37.10;4.82;;;13.20;71.20;;;;;;5077233;28;20047;-68
2020/12/01 10:38:30;;;;;;;38.67;3.97;;;13.10;71.40;;;;;;5066033;28;20044;-67
2020/12/01 10:40:56;;;;;;;34.88;5.47;;;13.10;71.40;;;;;;5086217;28;20051;-67
2020/12/01 10:43:22;;;;;;;32.20;4.53;;;13.10;71.30;;;;;;5079854;28;20036;-66
2020/12/01 10:45:47;;;;;;;44.33;4.55;;;13.20;71.20;;;;;;5068425;28;20035;-68
2020/12/01 10:48:13;;;;;;;43.47;4.35;;;13.20;71.30;;;;;;5059689;28;20020;-68
2020/12/01 10:50:39;;;;;;;38.60;4.43;;;13.30;71.10;;;;;;5050775;28;20040;-69
2020/12/01 10:53:04;;;;;;;37.13;4.10;;;13.30;70.90;;;;;;5087275;28;20028;-67
2020/12/01 10:55:33;;;;;;;36.25;4.50;;;13.30;70.70;;;;;;5093351;28;20032;-69
2020/12/01 10:57:59;;;;;;;40.95;4.53;;;13.30;70.70;;;;;;5064564;28;20060;-68
2020/12/01 11:00:27;;;;;;;34.97;3.83;;;13.40;70.60;;;;;;5074757;28;20039;-68
2020/12/01 11:02:54;;;;;;;38.47;4.28;;;13.40;70.60;;;;;;5067442;28;20055;-68
2020/12/01 11:05:26;;;;;;;39.15;4.93;;;13.30;70.70;;;;;;5088564;28;20507;-67
2020/12/01 11:07:52;;;;;;;38.10;4.38;;;13.30;70.50;;;;;;5087370;28;20020;-68
2020/12/01 11:10:18;;;;;;;34.72;4.13;;;13.30;70.60;;;;;;5092855;28;20092;-68
2020/12/01 11:12:44;;;;;;;27.40;3.95;;;13.40;70.50;;;;;;5060314;28;20143;-68
2020/12/01 11:15:10;;;;;;;32.60;4.55;;;13.40;70.50;;;;;;5080895;28;20055;-67
2020/12/01 11:17:36;;;;;;;34.08;3.90;;;13.40;70.40;;;;;;5061880;28;20138;-70
2020/12/01 11:20:04;;;;;;;27.92;3.75;;;13.40;70.20;;;;;;5079907;28;20109;-71
2020/12/01 11:22:29;;;;;;;29.98;4.10;;;13.40;70.00;;;;;;5064216;28;20025;-68
2020/12/01 11:24:55;;;;;;;34.63;4.55;;;13.40;70.00;;;;;;5090634;28;20059;-67
2020/12/01 11:27:20;;;;;;;39.63;4.38;;;13.50;69.90;;;;;;5085921;28;20070;-68
2020/12/01 11:29:46;;;;;;;33.30;3.80;;;13.40;69.90;;;;;;5084084;28;20083;-67
2020/12/01 11:32:12;;;;;;;35.83;4.50;;;13.50;69.80;;;;;;5067171;28;20364;-70
2020/12/01 11:34:37;;;;;;;23.67;3.65;;;13.50;69.70;;;;;;5081109;28;20919;-69
2020/12/01 11:37:03;;;;;;;29.42;4.63;;;13.50;69.50;;;;;;5089346;28;20408;-69
2020/12/01 11:39:29;;;;;;;29.17;3.80;;;13.50;69.70;;;;;;5087343;28;20531;-68
2020/12/01 11:41:55;;;;;;;29.60;3.28;;;13.50;69.50;;;;;;5048256;28;20083;-68
2020/12/01 11:44:20;;;;;;;30.27;4.38;;;13.50;69.40;;;;;;5082583;28;20519;-68
2020/12/01 11:46:46;;;;;;;43.20;3.63;;;13.60;69.20;;;;;;5086583;28;20028;-69
2020/12/01 11:49:12;;;;;;;28.77;3.88;;;13.60;69.20;;;;;;5065277;28;20036;-70
2020/12/01 11:51:40;;;;;;;29.95;4.03;;;13.60;69.10;;;;;;5081546;28;20043;-68
2020/12/01 11:54:10;;;;;;;27.85;3.85;;;13.60;68.80;;;;;;5047024;28;20025;-67
2020/12/01 11:56:36;;;;;;;28.98;3.80;;;13.60;69.10;;;;;;5056655;28;20028;-67
2020/12/01 11:59:02;;;;;;;37.00;4.35;;;13.50;69.10;;;;;;5075669;28;20043;-67
2020/12/01 12:01:51;;;;;;;26.85;3.33;;;13.50;68.80;;;;;;5099180;27;20332;-68
2020/12/01 12:04:16;;;;;;;28.65;4.80;;;13.40;69.60;;;;;;5067701;28;20058;-67
2020/12/01 12:06:42;;;;;;;22.55;3.53;;;13.40;69.60;;;;;;5104885;28;20039;-68
2020/12/01 12:09:09;;;;;;;27.55;3.70;;;13.30;69.70;;;;;;5065979;28;20028;-66
2020/12/01 12:11:36;;;;;;;23.48;3.67;;;13.30;69.40;;;;;;5091398;28;20047;-66
2020/12/01 12:14:02;;;;;;;28.23;4.05;;;13.30;69.80;;;;;;5071775;28;20032;-66
2020/12/01 12:16:28;;;;;;;27.17;4.20;;;13.30;69.80;;;;;;5098671;28;20023;-67
2020/12/01 12:18:54;;;;;;;27.63;4.15;;;13.30;69.60;;;;;;5094518;28;20036;-68
2020/12/01 12:21:20;;;;;;;29.88;4.05;;;13.30;69.60;;;;;;5072272;28;20337;-67
2020/12/01 12:23:47;;;;;;;23.40;3.17;;;13.30;69.50;;;;;;5080877;28;20058;-67
2020/12/01 12:26:14;;;;;;;29.05;4.22;;;13.30;69.40;;;;;;5080661;28;20039;-68
2020/12/01 12:28:39;;;;;;;30.30;4.68;;;13.30;69.20;;;;;;5096962;28;20028;-67
2020/12/01 12:31:06;;;;;;;31.02;4.22;;;13.30;68.90;;;;;;5090671;28;20032;-68
2020/12/01 12:33:32;;;;;;;26.45;4.13;;;13.30;69.20;;;;;;5098528;28;20024;-68
2020/12/01 12:35:59;;;;;;;29.25;3.17;;;13.30;69.20;;;;;;5096225;28;20103;-68
2020/12/01 12:38:25;;;;;;;30.95;3.95;;;13.30;69.10;;;;;;5097774;28;20059;-68
2020/12/01 12:40:52;;;;;;;25.45;4.22;;;13.40;68.90;;;;;;5096680;28;20085;-68
2020/12/01 12:43:19;;;;;;;28.33;3.92;;;13.40;69.00;;;;;;5090961;28;20499;-67
2020/12/01 12:45:45;;;;;;;23.70;3.90;;;13.40;69.10;;;;;;5077191;28;20497;-67
2020/12/01 12:48:11;;;;;;;26.40;3.72;;;13.40;68.90;;;;;;5102245;28;20111;-67
2020/12/01 12:50:37;;;;;;;27.45;3.65;;;13.40;68.70;;;;;;5084785;28;20141;-66
2020/12/01 12:53:03;;;;;;;27.83;3.78;;;13.40;68.70;;;;;;5094069;28;20024;-67
2020/12/01 12:55:28;;;;;;;26.10;3.90;;;13.50;68.80;;;;;;5082772;28;20032;-67
2020/12/01 12:57:58;;;;;;;25.85;3.63;;;13.50;68.30;;;;;;5077510;28;20028;-66
2020/12/01 13:00:24;;;;;;;29.08;3.65;;;13.50;67.90;;;;;;5092308;28;20044;-68
2020/12/01 13:02:49;;;;;;;25.38;3.88;;;13.50;67.80;;;;;;5064413;28;20029;-67
2020/12/01 13:05:15;;;;;;;31.35;4.03;;;13.50;67.80;;;;;;5060497;28;20028;-67
2020/12/01 13:07:41;;;;;;;21.90;3.22;;;13.50;67.90;;;;;;5064810;28;20128;-66
2020/12/01 13:10:07;;;;;;;23.63;3.35;;;13.60;68.00;;;;;;5069709;28;20113;-67
2020/12/01 13:12:33;;;;;;;21.38;3.03;;;13.60;67.80;;;;;;5065130;28;20021;-66
2020/12/01 13:14:59;;;;;;;25.85;3.33;;;13.60;67.60;;;;;;5063876;28;20036;-66
2020/12/01 13:17:24;;;;;;;29.17;3.33;;;13.60;67.60;;;;;;5042689;28;20025;-67
2020/12/01 13:19:50;;;;;;;19.45;3.15;;;13.60;67.50;;;;;;5063488;28;20031;-68
2020/12/01 13:22:16;;;;;;;25.83;3.45;;;13.60;67.30;;;;;;5060048;28;20125;-67
2020/12/01 13:24:41;;;;;;;25.27;3.00;;;13.60;67.20;;;;;;5059549;28;20045;-67
2020/12/01 13:27:07;;;;;;;33.20;3.70;;;13.60;67.20;;;;;;5049659;28;20473;-67
2020/12/01 13:29:32;;;;;;;20.38;3.15;;;13.50;67.20;;;;;;5071491;28;20027;-68
2020/12/01 13:31:58;;;;;;;23.27;3.67;;;13.50;67.20;;;;;;5062580;28;20385;-67
2020/12/01 13:34:24;;;;;;;23.58;3.47;;;13.60;67.20;;;;;;5070496;28;20520;-67